sensor_id;sensor_type;location;lat;lon;timestamp;P1;durP1;ratioP1;P2;durP2;ratioP2
13279;SDS011;6708;49.814;8.652;2023-06-10T00:00:46;5.27;;;4.87;;
13279;SDS011;6708;49.814;8.652;2023-06-10T00:03:17;5.33;;;5.00;;
13279;SDS011;6708;49.814;8.652;2023-06-10T00:05:45;6.40;;;5.90;;
13279;SDS011;6708;49.814;8.652;2023-06-10T00:08:14;7.33;;;6.03;;
13279;SDS011;6708;49.814;8.652;2023-06-10T00:10:44;5.80;;;5.30;;
13279;SDS011;6708;49.814;8.652;2023-06-10T00:13:13;5.90;;;5.40;;
13279;SDS011;6708;49.814;8.652;2023-06-10T00:15:42;7.10;;;5.77;;
13279;SDS011;6708;49.814;8.652;2023-06-10T00:18:13;5.80;;;5.20;;
13279;SDS011;6708;49.814;8.652;2023-06-10T00:20:42;5.97;;;5.47;;
13279;SDS011;6708;49.814;8.652;2023-06-10T00:23:14;5.97;;;5.43;;
13279;SDS011;6708;49.814;8.652;2023-06-10T00:25:42;6.40;;;5.90;;
13279;SDS011;6708;49.814;8.652;2023-06-10T00:28:11;6.83;;;6.23;;
13279;SDS011;6708;49.814;8.652;2023-06-10T00:30:39;5.80;;;5.27;;
13279;SDS011;6708;49.814;8.652;2023-06-10T00:33:09;12.23;;;5.60;;
13279;SDS011;6708;49.814;8.652;2023-06-10T00:35:40;6.17;;;5.73;;
13279;SDS011;6708;49.814;8.652;2023-06-10T00:38:08;6.27;;;5.73;;
13279;SDS011;6708;49.814;8.652;2023-06-10T00:40:39;6.30;;;5.80;;
13279;SDS011;6708;49.814;8.652;2023-06-10T00:43:07;5.90;;;5.50;;
13279;SDS011;6708;49.814;8.652;2023-06-10T00:45:36;6.00;;;5.60;;
13279;SDS011;6708;49.814;8.652;2023-06-10T00:48:04;5.70;;;5.30;;
13279;SDS011;6708;49.814;8.652;2023-06-10T00:50:33;6.20;;;5.70;;
13279;SDS011;6708;49.814;8.652;2023-06-10T00:53:07;6.97;;;5.83;;
13279;SDS011;6708;49.814;8.652;2023-06-10T00:55:36;6.70;;;6.10;;
13279;SDS011;6708;49.814;8.652;2023-06-10T00:58:04;8.33;;;5.87;;
13279;SDS011;6708;49.814;8.652;2023-06-10T01:00:33;6.23;;;5.37;;
13279;SDS011;6708;49.814;8.652;2023-06-10T01:03:02;5.43;;;5.03;;
13279;SDS011;6708;49.814;8.652;2023-06-10T01:05:33;5.97;;;5.40;;
13279;SDS011;6708;49.814;8.652;2023-06-10T01:08:03;6.30;;;5.80;;
13279;SDS011;6708;49.814;8.652;2023-06-10T01:10:41;6.67;;;6.07;;
13279;SDS011;6708;49.814;8.652;2023-06-10T01:13:11;5.93;;;5.53;;
13279;SDS011;6708;49.814;8.652;2023-06-10T01:15:41;5.97;;;5.47;;
13279;SDS011;6708;49.814;8.652;2023-06-10T01:18:11;6.60;;;6.10;;
13279;SDS011;6708;49.814;8.652;2023-06-10T01:20:42;5.90;;;5.50;;
13279;SDS011;6708;49.814;8.652;2023-06-10T01:23:15;6.70;;;6.20;;
13279;SDS011;6708;49.814;8.652;2023-06-10T01:25:45;6.33;;;5.93;;
13279;SDS011;6708;49.814;8.652;2023-06-10T01:28:17;6.10;;;5.53;;
13279;SDS011;6708;49.814;8.652;2023-06-10T01:30:49;6.73;;;6.13;;
13279;SDS011;6708;49.814;8.652;2023-06-10T01:33:28;6.17;;;5.67;;
13279;SDS011;6708;49.814;8.652;2023-06-10T01:35:59;6.00;;;5.50;;
13279;SDS011;6708;49.814;8.652;2023-06-10T01:38:30;8.87;;;5.73;;
13279;SDS011;6708;49.814;8.652;2023-06-10T01:41:01;5.60;;;5.30;;
13279;SDS011;6708;49.814;8.652;2023-06-10T01:43:32;6.67;;;6.17;;
13279;SDS011;6708;49.814;8.652;2023-06-10T01:46:01;6.13;;;5.53;;
13279;SDS011;6708;49.814;8.652;2023-06-10T01:48:29;7.67;;;5.77;;
13279;SDS011;6708;49.814;8.652;2023-06-10T01:50:58;4.97;;;4.67;;
13279;SDS011;6708;49.814;8.652;2023-06-10T01:53:26;5.67;;;5.27;;
13279;SDS011;6708;49.814;8.652;2023-06-10T01:55:57;6.37;;;5.87;;
13279;SDS011;6708;49.814;8.652;2023-06-10T01:58:27;6.77;;;5.63;;
13279;SDS011;6708;49.814;8.652;2023-06-10T02:00:56;6.70;;;6.10;;
13279;SDS011;6708;49.814;8.652;2023-06-10T02:03:24;6.60;;;6.00;;
13279;SDS011;6708;49.814;8.652;2023-06-10T02:05:53;6.50;;;5.90;;
13279;SDS011;6708;49.814;8.652;2023-06-10T02:08:21;6.27;;;5.77;;
13279;SDS011;6708;49.814;8.652;2023-06-10T02:10:49;6.20;;;5.70;;
13279;SDS011;6708;49.814;8.652;2023-06-10T02:13:20;6.20;;;5.77;;
13279;SDS011;6708;49.814;8.652;2023-06-10T02:15:53;5.83;;;5.20;;
13279;SDS011;6708;49.814;8.652;2023-06-10T02:18:22;7.00;;;6.07;;
13279;SDS011;6708;49.814;8.652;2023-06-10T02:20:52;5.90;;;5.33;;
13279;SDS011;6708;49.814;8.652;2023-06-10T02:23:21;6.20;;;5.80;;
13279;SDS011;6708;49.814;8.652;2023-06-10T02:25:50;5.93;;;5.53;;
13279;SDS011;6708;49.814;8.652;2023-06-10T02:28:21;5.77;;;5.40;;
13279;SDS011;6708;49.814;8.652;2023-06-10T02:30:50;6.30;;;5.90;;
13279;SDS011;6708;49.814;8.652;2023-06-10T02:33:20;5.90;;;5.40;;
13279;SDS011;6708;49.814;8.652;2023-06-10T02:35:49;6.30;;;5.50;;
13279;SDS011;6708;49.814;8.652;2023-06-10T02:38:19;6.20;;;5.67;;
13279;SDS011;6708;49.814;8.652;2023-06-10T02:40:48;8.50;;;6.20;;
13279;SDS011;6708;49.814;8.652;2023-06-10T02:43:17;6.27;;;5.77;;
13279;SDS011;6708;49.814;8.652;2023-06-10T02:45:49;6.83;;;5.47;;
13279;SDS011;6708;49.814;8.652;2023-06-10T02:48:18;6.00;;;5.60;;
13279;SDS011;6708;49.814;8.652;2023-06-10T02:50:46;6.73;;;6.20;;
13279;SDS011;6708;49.814;8.652;2023-06-10T02:53:21;5.93;;;5.43;;
13279;SDS011;6708;49.814;8.652;2023-06-10T02:55:54;5.90;;;5.50;;
13279;SDS011;6708;49.814;8.652;2023-06-10T02:58:22;6.07;;;5.67;;
13279;SDS011;6708;49.814;8.652;2023-06-10T03:00:54;6.20;;;5.80;;
13279;SDS011;6708;49.814;8.652;2023-06-10T03:03:24;5.93;;;5.43;;
13279;SDS011;6708;49.814;8.652;2023-06-10T03:06:04;6.50;;;5.57;;
13279;SDS011;6708;49.814;8.652;2023-06-10T03:08:34;6.27;;;5.77;;
13279;SDS011;6708;49.814;8.652;2023-06-10T03:11:06;6.37;;;5.87;;
13279;SDS011;6708;49.814;8.652;2023-06-10T03:13:36;5.50;;;5.20;;
13279;SDS011;6708;49.814;8.652;2023-06-10T03:16:11;5.80;;;5.30;;
13279;SDS011;6708;49.814;8.652;2023-06-10T03:18:41;5.50;;;5.20;;
13279;SDS011;6708;49.814;8.652;2023-06-10T03:21:09;5.63;;;5.30;;
13279;SDS011;6708;49.814;8.652;2023-06-10T03:23:38;6.43;;;6.00;;
13279;SDS011;6708;49.814;8.652;2023-06-10T03:26:07;6.07;;;5.57;;
13279;SDS011;6708;49.814;8.652;2023-06-10T03:28:38;5.70;;;5.33;;
13279;SDS011;6708;49.814;8.652;2023-06-10T03:31:08;5.87;;;5.47;;
13279;SDS011;6708;49.814;8.652;2023-06-10T03:33:39;6.07;;;5.57;;
13279;SDS011;6708;49.814;8.652;2023-06-10T03:36:07;6.23;;;5.73;;
13279;SDS011;6708;49.814;8.652;2023-06-10T03:38:36;6.27;;;5.77;;
13279;SDS011;6708;49.814;8.652;2023-06-10T03:41:06;6.07;;;5.63;;
13279;SDS011;6708;49.814;8.652;2023-06-10T03:43:37;6.07;;;5.57;;
13279;SDS011;6708;49.814;8.652;2023-06-10T03:46:07;7.33;;;6.60;;
13279;SDS011;6708;49.814;8.652;2023-06-10T03:48:40;9.53;;;7.17;;
13279;SDS011;6708;49.814;8.652;2023-06-10T03:51:09;6.10;;;5.70;;
13279;SDS011;6708;49.814;8.652;2023-06-10T03:53:37;6.43;;;6.03;;
13279;SDS011;6708;49.814;8.652;2023-06-10T03:56:06;6.47;;;5.73;;
13279;SDS011;6708;49.814;8.652;2023-06-10T03:58:34;6.67;;;6.17;;
13279;SDS011;6708;49.814;8.652;2023-06-10T04:01:03;6.10;;;5.70;;
13279;SDS011;6708;49.814;8.652;2023-06-10T04:03:34;6.00;;;5.50;;
13279;SDS011;6708;49.814;8.652;2023-06-10T04:06:07;6.17;;;5.67;;
13279;SDS011;6708;49.814;8.652;2023-06-10T04:08:35;7.17;;;6.00;;
13279;SDS011;6708;49.814;8.652;2023-06-10T04:11:04;6.83;;;5.93;;
13279;SDS011;6708;49.814;8.652;2023-06-10T04:13:34;6.50;;;5.87;;
13279;SDS011;6708;49.814;8.652;2023-06-10T04:16:02;6.87;;;6.33;;
13279;SDS011;6708;49.814;8.652;2023-06-10T04:18:31;6.87;;;6.33;;
13279;SDS011;6708;49.814;8.652;2023-06-10T04:21:07;6.90;;;6.40;;
13279;SDS011;6708;49.814;8.652;2023-06-10T04:23:37;8.20;;;7.50;;
13279;SDS011;6708;49.814;8.652;2023-06-10T04:26:05;7.37;;;6.67;;
13279;SDS011;6708;49.814;8.652;2023-06-10T04:28:34;7.60;;;6.00;;
13279;SDS011;6708;49.814;8.652;2023-06-10T04:31:02;19.30;;;7.20;;
13279;SDS011;6708;49.814;8.652;2023-06-10T04:33:31;6.67;;;6.13;;
13279;SDS011;6708;49.814;8.652;2023-06-10T04:36:01;6.83;;;6.30;;
13279;SDS011;6708;49.814;8.652;2023-06-10T04:38:34;6.60;;;5.87;;
13279;SDS011;6708;49.814;8.652;2023-06-10T04:41:03;6.30;;;5.90;;
13279;SDS011;6708;49.814;8.652;2023-06-10T04:43:33;6.60;;;6.10;;
13279;SDS011;6708;49.814;8.652;2023-06-10T04:46:08;6.40;;;5.57;;
13279;SDS011;6708;49.814;8.652;2023-06-10T04:48:38;6.00;;;5.50;;
13279;SDS011;6708;49.814;8.652;2023-06-10T04:51:12;6.13;;;5.63;;
13279;SDS011;6708;49.814;8.652;2023-06-10T04:53:43;6.93;;;5.53;;
13279;SDS011;6708;49.814;8.652;2023-06-10T04:56:11;6.60;;;6.10;;
13279;SDS011;6708;49.814;8.652;2023-06-10T04:58:40;7.73;;;7.03;;
13279;SDS011;6708;49.814;8.652;2023-06-10T05:01:08;6.17;;;5.77;;
13279;SDS011;6708;49.814;8.652;2023-06-10T05:03:37;6.07;;;5.57;;
13279;SDS011;6708;49.814;8.652;2023-06-10T05:06:05;8.10;;;5.47;;
13279;SDS011;6708;49.814;8.652;2023-06-10T05:08:33;5.90;;;5.47;;
13279;SDS011;6708;49.814;8.652;2023-06-10T05:11:04;5.87;;;5.40;;
13279;SDS011;6708;49.814;8.652;2023-06-10T05:13:33;5.93;;;5.43;;
13279;SDS011;6708;49.814;8.652;2023-06-10T05:16:02;6.03;;;5.63;;
13279;SDS011;6708;49.814;8.652;2023-06-10T05:18:31;5.20;;;4.90;;
13279;SDS011;6708;49.814;8.652;2023-06-10T05:20:59;5.40;;;5.10;;
13279;SDS011;6708;49.814;8.652;2023-06-10T05:23:27;5.53;;;5.13;;
13279;SDS011;6708;49.814;8.652;2023-06-10T05:25:58;5.30;;;4.90;;
13279;SDS011;6708;49.814;8.652;2023-06-10T05:28:29;6.73;;;5.47;;
13279;SDS011;6708;49.814;8.652;2023-06-10T05:30:57;5.73;;;5.33;;
13279;SDS011;6708;49.814;8.652;2023-06-10T05:33:25;6.40;;;5.70;;
13279;SDS011;6708;49.814;8.652;2023-06-10T05:35:54;5.40;;;5.00;;
13279;SDS011;6708;49.814;8.652;2023-06-10T05:38:22;6.20;;;5.60;;
13279;SDS011;6708;49.814;8.652;2023-06-10T05:40:51;6.10;;;5.60;;
13279;SDS011;6708;49.814;8.652;2023-06-10T05:43:22;6.23;;;5.63;;
13279;SDS011;6708;49.814;8.652;2023-06-10T05:45:52;6.50;;;5.90;;
13279;SDS011;6708;49.814;8.652;2023-06-10T05:48:21;7.57;;;5.83;;
13279;SDS011;6708;49.814;8.652;2023-06-10T05:50:49;9.80;;;5.97;;
13279;SDS011;6708;49.814;8.652;2023-06-10T05:53:18;6.73;;;6.20;;
13279;SDS011;6708;49.814;8.652;2023-06-10T05:55:47;6.00;;;5.60;;
13279;SDS011;6708;49.814;8.652;2023-06-10T05:58:21;6.67;;;6.07;;
13279;SDS011;6708;49.814;8.652;2023-06-10T06:00:49;6.37;;;5.87;;
13279;SDS011;6708;49.814;8.652;2023-06-10T06:03:22;6.10;;;5.60;;
13279;SDS011;6708;49.814;8.652;2023-06-10T06:05:53;6.47;;;5.90;;
13279;SDS011;6708;49.814;8.652;2023-06-10T06:08:21;6.10;;;5.60;;
13279;SDS011;6708;49.814;8.652;2023-06-10T06:10:50;6.20;;;5.73;;
13279;SDS011;6708;49.814;8.652;2023-06-10T06:13:18;12.37;;;6.53;;
13279;SDS011;6708;49.814;8.652;2023-06-10T06:15:46;6.90;;;5.70;;
13279;SDS011;6708;49.814;8.652;2023-06-10T06:18:17;5.87;;;5.37;;
13279;SDS011;6708;49.814;8.652;2023-06-10T06:20:46;5.80;;;5.30;;
13279;SDS011;6708;49.814;8.652;2023-06-10T06:23:16;5.53;;;5.13;;
13279;SDS011;6708;49.814;8.652;2023-06-10T06:25:44;5.60;;;5.10;;
13279;SDS011;6708;49.814;8.652;2023-06-10T06:28:12;5.90;;;5.20;;
13279;SDS011;6708;49.814;8.652;2023-06-10T06:30:41;5.27;;;4.83;;
13279;SDS011;6708;49.814;8.652;2023-06-10T06:33:09;5.23;;;4.83;;
13279;SDS011;6708;49.814;8.652;2023-06-10T06:35:40;5.83;;;5.43;;
13279;SDS011;6708;49.814;8.652;2023-06-10T06:38:10;5.77;;;5.37;;
13279;SDS011;6708;49.814;8.652;2023-06-10T06:40:38;5.10;;;4.80;;
13279;SDS011;6708;49.814;8.652;2023-06-10T06:43:06;5.33;;;5.00;;
13279;SDS011;6708;49.814;8.652;2023-06-10T06:45:41;5.37;;;4.93;;
13279;SDS011;6708;49.814;8.652;2023-06-10T06:48:10;5.90;;;5.50;;
13279;SDS011;6708;49.814;8.652;2023-06-10T06:50:43;5.10;;;4.70;;
13279;SDS011;6708;49.814;8.652;2023-06-10T06:53:13;5.40;;;5.00;;
13279;SDS011;6708;49.814;8.652;2023-06-10T06:55:41;5.30;;;4.90;;
13279;SDS011;6708;49.814;8.652;2023-06-10T06:58:09;4.93;;;4.53;;
13279;SDS011;6708;49.814;8.652;2023-06-10T07:00:38;5.23;;;4.83;;
13279;SDS011;6708;49.814;8.652;2023-06-10T07:03:06;6.20;;;4.77;;
13279;SDS011;6708;49.814;8.652;2023-06-10T07:05:34;5.27;;;4.73;;
13279;SDS011;6708;49.814;8.652;2023-06-10T07:08:06;5.03;;;4.73;;
13279;SDS011;6708;49.814;8.652;2023-06-10T07:10:35;6.13;;;4.67;;
13279;SDS011;6708;49.814;8.652;2023-06-10T07:13:03;5.43;;;4.90;;
13279;SDS011;6708;49.814;8.652;2023-06-10T07:15:31;4.90;;;4.50;;
13279;SDS011;6708;49.814;8.652;2023-06-10T07:18:00;9.33;;;5.30;;
13279;SDS011;6708;49.814;8.652;2023-06-10T07:20:28;6.22;;;4.40;;
13279;SDS011;6708;49.814;8.652;2023-06-10T07:22:57;6.30;;;4.72;;
13279;SDS011;6708;49.814;8.652;2023-06-10T07:25:28;5.05;;;4.63;;
13279;SDS011;6708;49.814;8.652;2023-06-10T07:27:56;4.78;;;4.38;;
13279;SDS011;6708;49.814;8.652;2023-06-10T07:30:24;4.65;;;4.32;;
13279;SDS011;6708;49.814;8.652;2023-06-10T07:32:53;3.75;;;3.55;;
13279;SDS011;6708;49.814;8.652;2023-06-10T07:35:21;4.40;;;4.10;;
13279;SDS011;6708;49.814;8.652;2023-06-10T07:37:50;4.40;;;4.18;;
13279;SDS011;6708;49.814;8.652;2023-06-10T07:40:19;3.85;;;3.65;;
13279;SDS011;6708;49.814;8.652;2023-06-10T07:42:50;4.22;;;4.03;;
13279;SDS011;6708;49.814;8.652;2023-06-10T07:45:19;4.88;;;4.43;;
13279;SDS011;6708;49.814;8.652;2023-06-10T07:47:47;4.50;;;4.10;;
13279;SDS011;6708;49.814;8.652;2023-06-10T07:50:15;5.97;;;4.47;;
13279;SDS011;6708;49.814;8.652;2023-06-10T07:52:44;4.95;;;4.20;;
13279;SDS011;6708;49.814;8.652;2023-06-10T07:55:12;4.20;;;3.85;;
13279;SDS011;6708;49.814;8.652;2023-06-10T07:57:40;7.75;;;4.40;;
13279;SDS011;6708;49.814;8.652;2023-06-10T08:00:12;4.78;;;4.43;;
13279;SDS011;6708;49.814;8.652;2023-06-10T08:02:40;4.60;;;4.30;;
13279;SDS011;6708;49.814;8.652;2023-06-10T08:05:09;4.30;;;4.00;;
13279;SDS011;6708;49.814;8.652;2023-06-10T08:07:38;4.70;;;4.30;;
13279;SDS011;6708;49.814;8.652;2023-06-10T08:10:08;4.75;;;4.35;;
13279;SDS011;6708;49.814;8.652;2023-06-10T08:12:37;6.88;;;4.72;;
13279;SDS011;6708;49.814;8.652;2023-06-10T08:15:06;4.43;;;3.85;;
13279;SDS011;6708;49.814;8.652;2023-06-10T08:17:38;4.63;;;4.25;;
13279;SDS011;6708;49.814;8.652;2023-06-10T08:20:06;4.63;;;4.22;;
13279;SDS011;6708;49.814;8.652;2023-06-10T08:22:35;4.38;;;4.15;;
13279;SDS011;6708;49.814;8.652;2023-06-10T08:25:04;4.57;;;4.28;;
13279;SDS011;6708;49.814;8.652;2023-06-10T08:27:33;4.20;;;4.00;;
13279;SDS011;6708;49.814;8.652;2023-06-10T08:30:02;4.55;;;3.83;;
13279;SDS011;6708;49.814;8.652;2023-06-10T08:32:31;4.57;;;4.30;;
13279;SDS011;6708;49.814;8.652;2023-06-10T08:35:02;4.05;;;3.83;;
13279;SDS011;6708;49.814;8.652;2023-06-10T08:37:32;4.78;;;4.38;;
13279;SDS011;6708;49.814;8.652;2023-06-10T08:40:01;5.53;;;4.10;;
13279;SDS011;6708;49.814;8.652;2023-06-10T08:42:34;4.95;;;4.55;;
13279;SDS011;6708;49.814;8.652;2023-06-10T08:45:08;4.97;;;4.60;;
13279;SDS011;6708;49.814;8.652;2023-06-10T08:47:40;5.63;;;4.05;;
13279;SDS011;6708;49.814;8.652;2023-06-10T08:50:12;4.38;;;4.07;;
13279;SDS011;6708;49.814;8.652;2023-06-10T08:52:42;5.35;;;4.00;;
13279;SDS011;6708;49.814;8.652;2023-06-10T08:55:15;10.32;;;4.47;;
13279;SDS011;6708;49.814;8.652;2023-06-10T08:57:51;4.97;;;4.53;;
13279;SDS011;6708;49.814;8.652;2023-06-10T09:00:20;4.22;;;3.95;;
13279;SDS011;6708;49.814;8.652;2023-06-10T09:02:51;4.18;;;3.88;;
13279;SDS011;6708;49.814;8.652;2023-06-10T09:05:24;5.35;;;3.90;;
13279;SDS011;6708;49.814;8.652;2023-06-10T09:07:52;5.80;;;4.75;;
13279;SDS011;6708;49.814;8.652;2023-06-10T09:10:21;4.45;;;4.05;;
13279;SDS011;6708;49.814;8.652;2023-06-10T09:12:50;4.47;;;4.18;;
13279;SDS011;6708;49.814;8.652;2023-06-10T09:15:19;4.50;;;4.10;;
13279;SDS011;6708;49.814;8.652;2023-06-10T09:17:50;4.03;;;3.83;;
13279;SDS011;6708;49.814;8.652;2023-06-10T09:20:19;5.05;;;4.20;;
13279;SDS011;6708;49.814;8.652;2023-06-10T09:22:51;5.03;;;4.18;;
13279;SDS011;6708;49.814;8.652;2023-06-10T09:25:19;4.50;;;4.20;;
13279;SDS011;6708;49.814;8.652;2023-06-10T09:27:56;5.35;;;4.78;;
13279;SDS011;6708;49.814;8.652;2023-06-10T09:30:25;5.63;;;4.50;;
13279;SDS011;6708;49.814;8.652;2023-06-10T09:32:54;4.43;;;4.13;;
13279;SDS011;6708;49.814;8.652;2023-06-10T09:35:24;4.10;;;3.83;;
13279;SDS011;6708;49.814;8.652;2023-06-10T09:37:55;3.97;;;3.75;;
13279;SDS011;6708;49.814;8.652;2023-06-10T09:40:24;4.45;;;4.05;;
13279;SDS011;6708;49.814;8.652;2023-06-10T09:42:54;6.10;;;4.53;;
13279;SDS011;6708;49.814;8.652;2023-06-10T09:45:23;4.18;;;3.88;;
13279;SDS011;6708;49.814;8.652;2023-06-10T09:47:52;4.25;;;3.85;;
13279;SDS011;6708;49.814;8.652;2023-06-10T09:50:21;4.60;;;4.30;;
13279;SDS011;6708;49.814;8.652;2023-06-10T09:52:50;4.55;;;4.05;;
13279;SDS011;6708;49.814;8.652;2023-06-10T09:55:21;4.53;;;4.10;;
13279;SDS011;6708;49.814;8.652;2023-06-10T09:57:52;4.35;;;3.95;;
13279;SDS011;6708;49.814;8.652;2023-06-10T10:00:21;3.95;;;3.70;;
13279;SDS011;6708;49.814;8.652;2023-06-10T10:02:51;3.65;;;3.45;;
13279;SDS011;6708;49.814;8.652;2023-06-10T10:05:21;4.05;;;3.58;;
13279;SDS011;6708;49.814;8.652;2023-06-10T10:07:52;4.35;;;3.95;;
13279;SDS011;6708;49.814;8.652;2023-06-10T10:10:24;4.05;;;3.75;;
13279;SDS011;6708;49.814;8.652;2023-06-10T10:12:53;4.20;;;3.67;;
13279;SDS011;6708;49.814;8.652;2023-06-10T10:15:24;4.07;;;3.83;;
13279;SDS011;6708;49.814;8.652;2023-06-10T10:17:56;4.10;;;3.60;;
13279;SDS011;6708;49.814;8.652;2023-06-10T10:20:29;4.00;;;3.67;;
13279;SDS011;6708;49.814;8.652;2023-06-10T10:22:59;4.10;;;3.78;;
13279;SDS011;6708;49.814;8.652;2023-06-10T10:25:34;3.67;;;3.47;;
13279;SDS011;6708;49.814;8.652;2023-06-10T10:28:08;3.92;;;3.60;;
13279;SDS011;6708;49.814;8.652;2023-06-10T10:30:39;3.60;;;3.40;;
13279;SDS011;6708;49.814;8.652;2023-06-10T10:33:09;3.42;;;3.22;;
13279;SDS011;6708;49.814;8.652;2023-06-10T10:35:40;6.75;;;3.70;;
13279;SDS011;6708;49.814;8.652;2023-06-10T10:38:11;4.07;;;3.78;;
13279;SDS011;6708;49.814;8.652;2023-06-10T10:40:42;3.13;;;2.92;;
13279;SDS011;6708;49.814;8.652;2023-06-10T10:43:12;6.55;;;3.50;;
13279;SDS011;6708;49.814;8.652;2023-06-10T10:45:41;3.05;;;2.85;;
13279;SDS011;6708;49.814;8.652;2023-06-10T10:48:09;2.92;;;2.72;;
13279;SDS011;6708;49.814;8.652;2023-06-10T10:50:39;2.70;;;2.60;;
13279;SDS011;6708;49.814;8.652;2023-06-10T10:53:08;3.08;;;2.88;;
13279;SDS011;6708;49.814;8.652;2023-06-10T10:55:36;4.10;;;2.60;;
13279;SDS011;6708;49.814;8.652;2023-06-10T10:58:10;2.70;;;2.50;;
13279;SDS011;6708;49.814;8.652;2023-06-10T11:00:43;6.50;;;2.75;;
13279;SDS011;6708;49.814;8.652;2023-06-10T11:03:12;2.50;;;2.33;;
13279;SDS011;6708;49.814;8.652;2023-06-10T11:05:42;2.85;;;2.58;;
13279;SDS011;6708;49.814;8.652;2023-06-10T11:08:14;2.25;;;2.15;;
13279;SDS011;6708;49.814;8.652;2023-06-10T11:10:51;2.67;;;2.38;;
13279;SDS011;6708;49.814;8.652;2023-06-10T11:13:22;2.92;;;2.70;;
13279;SDS011;6708;49.814;8.652;2023-06-10T11:15:56;2.85;;;2.42;;
13279;SDS011;6708;49.814;8.652;2023-06-10T11:18:25;2.28;;;2.15;;
13279;SDS011;6708;49.814;8.652;2023-06-10T11:20:57;2.67;;;2.47;;
13279;SDS011;6708;49.814;8.652;2023-06-10T11:23:39;2.67;;;2.47;;
13279;SDS011;6708;49.814;8.652;2023-06-10T11:26:12;3.80;;;2.20;;
13279;SDS011;6708;49.814;8.652;2023-06-10T11:29:07;2.50;;;2.40;;
13279;SDS011;6708;49.814;8.652;2023-06-10T11:31:40;2.67;;;2.47;;
13279;SDS011;6708;49.814;8.652;2023-06-10T11:34:10;2.50;;;2.40;;
13279;SDS011;6708;49.814;8.652;2023-06-10T11:36:41;2.13;;;2.03;;
13279;SDS011;6708;49.814;8.652;2023-06-10T11:39:10;2.15;;;2.05;;
13279;SDS011;6708;49.814;8.652;2023-06-10T11:41:39;2.38;;;2.30;;
13279;SDS011;6708;49.814;8.652;2023-06-10T11:44:11;2.45;;;2.28;;
13279;SDS011;6708;49.814;8.652;2023-06-10T11:46:40;2.97;;;2.67;;
13279;SDS011;6708;49.814;8.652;2023-06-10T11:49:11;2.53;;;2.33;;
13279;SDS011;6708;49.814;8.652;2023-06-10T11:51:40;2.83;;;2.70;;
13279;SDS011;6708;49.814;8.652;2023-06-10T11:54:14;3.42;;;2.58;;
13279;SDS011;6708;49.814;8.652;2023-06-10T11:56:42;2.60;;;2.50;;
13279;SDS011;6708;49.814;8.652;2023-06-10T11:59:13;2.55;;;2.30;;
13279;SDS011;6708;49.814;8.652;2023-06-10T12:01:42;1.95;;;1.67;;
13279;SDS011;6708;49.814;8.652;2023-06-10T12:04:12;2.40;;;2.30;;
13279;SDS011;6708;49.814;8.652;2023-06-10T12:06:41;2.35;;;2.25;;
13279;SDS011;6708;49.814;8.652;2023-06-10T12:09:18;4.25;;;2.55;;
13279;SDS011;6708;49.814;8.652;2023-06-10T12:11:49;2.75;;;2.55;;
13279;SDS011;6708;49.814;8.652;2023-06-10T12:17:19;2.72;;;2.45;;
13279;SDS011;6708;49.814;8.652;2023-06-10T12:19:49;2.55;;;2.45;;
13279;SDS011;6708;49.814;8.652;2023-06-10T12:22:17;2.88;;;2.38;;
13279;SDS011;6708;49.814;8.652;2023-06-10T12:24:57;2.30;;;2.10;;
13279;SDS011;6708;49.814;8.652;2023-06-10T12:27:27;4.97;;;3.28;;
13279;SDS011;6708;49.814;8.652;2023-06-10T12:29:57;2.67;;;2.47;;
13279;SDS011;6708;49.814;8.652;2023-06-10T12:32:40;2.40;;;2.30;;
13279;SDS011;6708;49.814;8.652;2023-06-10T12:35:09;3.00;;;2.45;;
13279;SDS011;6708;49.814;8.652;2023-06-10T12:37:40;2.45;;;2.35;;
13279;SDS011;6708;49.814;8.652;2023-06-10T12:40:09;2.80;;;2.70;;
13279;SDS011;6708;49.814;8.652;2023-06-10T12:42:38;2.80;;;2.67;;
13279;SDS011;6708;49.814;8.652;2023-06-10T12:45:08;2.47;;;2.30;;
13279;SDS011;6708;49.814;8.652;2023-06-10T12:47:43;2.65;;;2.55;;
13279;SDS011;6708;49.814;8.652;2023-06-10T12:50:11;2.50;;;2.40;;
13279;SDS011;6708;49.814;8.652;2023-06-10T12:52:39;2.70;;;2.60;;
13279;SDS011;6708;49.814;8.652;2023-06-10T12:55:09;2.47;;;2.38;;
13279;SDS011;6708;49.814;8.652;2023-06-10T12:57:37;2.97;;;2.78;;
13279;SDS011;6708;49.814;8.652;2023-06-10T13:00:16;4.03;;;2.40;;
13279;SDS011;6708;49.814;8.652;2023-06-10T13:02:48;2.33;;;2.22;;
13279;SDS011;6708;49.814;8.652;2023-06-10T13:05:17;2.53;;;2.42;;
13279;SDS011;6708;49.814;8.652;2023-06-10T13:07:45;3.90;;;2.63;;
13279;SDS011;6708;49.814;8.652;2023-06-10T13:10:14;2.80;;;2.60;;
13279;SDS011;6708;49.814;8.652;2023-06-10T13:12:43;2.67;;;2.50;;
13279;SDS011;6708;49.814;8.652;2023-06-10T13:15:12;2.58;;;2.38;;
13279;SDS011;6708;49.814;8.652;2023-06-10T13:17:41;3.33;;;2.70;;
13279;SDS011;6708;49.814;8.652;2023-06-10T13:20:13;2.38;;;2.28;;
13279;SDS011;6708;49.814;8.652;2023-06-10T13:22:42;3.25;;;2.95;;
13279;SDS011;6708;49.814;8.652;2023-06-10T13:25:10;2.75;;;2.55;;
13279;SDS011;6708;49.814;8.652;2023-06-10T13:27:40;2.95;;;2.65;;
13279;SDS011;6708;49.814;8.652;2023-06-10T13:30:09;2.58;;;2.38;;
13279;SDS011;6708;49.814;8.652;2023-06-10T13:32:38;2.33;;;2.17;;
13279;SDS011;6708;49.814;8.652;2023-06-10T13:35:07;2.42;;;2.30;;
13279;SDS011;6708;49.814;8.652;2023-06-10T13:37:38;2.85;;;2.63;;
13279;SDS011;6708;49.814;8.652;2023-06-10T13:40:07;3.15;;;2.95;;
13279;SDS011;6708;49.814;8.652;2023-06-10T13:42:37;2.58;;;2.47;;
13279;SDS011;6708;49.814;8.652;2023-06-10T13:45:05;2.58;;;2.38;;
13279;SDS011;6708;49.814;8.652;2023-06-10T13:47:35;2.03;;;2.00;;
13279;SDS011;6708;49.814;8.652;2023-06-10T13:50:04;2.63;;;2.53;;
13279;SDS011;6708;49.814;8.652;2023-06-10T13:52:33;2.63;;;2.42;;
13279;SDS011;6708;49.814;8.652;2023-06-10T13:55:04;5.65;;;2.33;;
13279;SDS011;6708;49.814;8.652;2023-06-10T13:57:33;2.42;;;2.33;;
13279;SDS011;6708;49.814;8.652;2023-06-10T14:00:01;2.55;;;2.45;;
13279;SDS011;6708;49.814;8.652;2023-06-10T14:02:33;2.13;;;2.03;;
13279;SDS011;6708;49.814;8.652;2023-06-10T14:05:02;2.63;;;2.33;;
13279;SDS011;6708;49.814;8.652;2023-06-10T14:07:33;2.50;;;2.40;;
13279;SDS011;6708;49.814;8.652;2023-06-10T14:10:05;2.97;;;2.78;;
13279;SDS011;6708;49.814;8.652;2023-06-10T14:12:34;3.58;;;2.45;;
13279;SDS011;6708;49.814;8.652;2023-06-10T14:15:03;3.00;;;2.80;;
13279;SDS011;6708;49.814;8.652;2023-06-10T14:17:32;2.80;;;2.60;;
13279;SDS011;6708;49.814;8.652;2023-06-10T14:20:01;2.53;;;2.40;;
13279;SDS011;6708;49.814;8.652;2023-06-10T14:22:29;2.72;;;2.63;;
13279;SDS011;6708;49.814;8.652;2023-06-10T14:24:58;3.00;;;2.70;;
13279;SDS011;6708;49.814;8.652;2023-06-10T14:27:28;2.60;;;2.50;;
13279;SDS011;6708;49.814;8.652;2023-06-10T14:29:57;2.60;;;2.40;;
13279;SDS011;6708;49.814;8.652;2023-06-10T14:32:25;5.13;;;2.75;;
13279;SDS011;6708;49.814;8.652;2023-06-10T14:34:56;2.53;;;2.42;;
13279;SDS011;6708;49.814;8.652;2023-06-10T14:37:25;3.03;;;2.83;;
13279;SDS011;6708;49.814;8.652;2023-06-10T14:39:53;2.50;;;2.40;;
13279;SDS011;6708;49.814;8.652;2023-06-10T14:42:22;2.67;;;2.47;;
13279;SDS011;6708;49.814;8.652;2023-06-10T14:44:53;5.90;;;2.58;;
13279;SDS011;6708;49.814;8.652;2023-06-10T14:47:21;3.08;;;2.88;;
13279;SDS011;6708;49.814;8.652;2023-06-10T14:49:50;2.55;;;2.45;;
13279;SDS011;6708;49.814;8.652;2023-06-10T14:52:18;2.88;;;2.67;;
13279;SDS011;6708;49.814;8.652;2023-06-10T14:54:47;3.08;;;2.75;;
13279;SDS011;6708;49.814;8.652;2023-06-10T14:57:15;3.08;;;2.28;;
13279;SDS011;6708;49.814;8.652;2023-06-10T14:59:44;2.58;;;2.42;;
13279;SDS011;6708;49.814;8.652;2023-06-10T15:02:17;2.28;;;2.15;;
13279;SDS011;6708;49.814;8.652;2023-06-10T15:04:46;2.47;;;2.22;;
13279;SDS011;6708;49.814;8.652;2023-06-10T15:07:14;3.13;;;2.55;;
13279;SDS011;6708;49.814;8.652;2023-06-10T15:09:43;2.90;;;2.13;;
13279;SDS011;6708;49.814;8.652;2023-06-10T15:12:12;5.03;;;2.33;;
13279;SDS011;6708;49.814;8.652;2023-06-10T15:14:40;2.60;;;2.40;;
13279;SDS011;6708;49.814;8.652;2023-06-10T15:17:08;2.35;;;2.15;;
13279;SDS011;6708;49.814;8.652;2023-06-10T15:19:39;4.68;;;2.67;;